sensor_id;sensor_type;location;lat;lon;timestamp;temperature;humidity
1534;DHT22;760;48.822;9.304;2024-03-08T05:06:15;2.00;99.90
1534;DHT22;760;48.822;9.304;2024-03-08T05:08:41;2.00;99.90
1534;DHT22;760;48.822;9.304;2024-03-08T05:11:07;2.10;99.90
1534;DHT22;760;48.822;9.304;2024-03-08T05:13:32;2.00;99.90
1534;DHT22;760;48.822;9.304;2024-03-08T05:15:59;2.10;99.90
1534;DHT22;760;48.822;9.304;2024-03-08T05:18:25;2.10;99.90
1534;DHT22;760;48.822;9.304;2024-03-08T05:20:51;2.10;99.90
1534;DHT22;760;48.822;9.304;2024-03-08T05:23:17;2.10;99.90
1534;DHT22;760;48.822;9.304;2024-03-08T05:25:45;2.10;99.90
1534;DHT22;760;48.822;9.304;2024-03-08T05:28:12;2.10;99.90
1534;DHT22;760;48.822;9.304;2024-03-08T05:30:38;2.10;99.90
1534;DHT22;760;48.822;9.304;2024-03-08T05:33:04;2.20;99.90
1534;DHT22;760;48.822;9.304;2024-03-08T05:35:31;2.20;99.90
1534;DHT22;760;48.822;9.304;2024-03-08T05:37:57;2.20;99.90
1534;DHT22;760;48.822;9.304;2024-03-08T05:40:23;2.20;99.90
1534;DHT22;760;48.822;9.304;2024-03-08T05:42:49;2.20;99.90
1534;DHT22;760;48.822;9.304;2024-03-08T05:45:15;2.30;99.90
1534;DHT22;760;48.822;9.304;2024-03-08T05:47:40;2.30;99.90
1534;DHT22;760;48.822;9.304;2024-03-08T05:50:06;2.30;99.90
1534;DHT22;760;48.822;9.304;2024-03-08T05:52:35;2.30;99.90
1534;DHT22;760;48.822;9.304;2024-03-08T05:55:01;2.40;99.90
1534;DHT22;760;48.822;9.304;2024-03-08T05:57:28;2.40;99.90
1534;DHT22;760;48.822;9.304;2024-03-08T05:59:53;2.50;99.90
1534;DHT22;760;48.822;9.304;2024-03-08T06:02:19;2.50;99.90
1534;DHT22;760;48.822;9.304;2024-03-08T06:04:47;2.60;99.90
1534;DHT22;760;48.822;9.304;2024-03-08T06:07:13;2.50;99.90
1534;DHT22;760;48.822;9.304;2024-03-08T06:09:39;2.60;99.90
1534;DHT22;760;48.822;9.304;2024-03-08T06:12:05;2.60;99.90
1534;DHT22;760;48.822;9.304;2024-03-08T06:14:32;2.70;99.90
1534;DHT22;760;48.822;9.304;2024-03-08T06:16:57;2.80;99.90
1534;DHT22;760;48.822;9.304;2024-03-08T06:19:23;2.80;99.90
1534;DHT22;760;48.822;9.304;2024-03-08T06:21:49;2.90;99.90
1534;DHT22;760;48.822;9.304;2024-03-08T06:24:14;3.00;99.90
1534;DHT22;760;48.822;9.304;2024-03-08T06:26:43;3.10;99.90
1534;DHT22;760;48.822;9.304;2024-03-08T06:29:08;3.10;99.90
1534;DHT22;760;48.822;9.304;2024-03-08T06:31:34;3.20;99.90
1534;DHT22;760;48.822;9.304;2024-03-08T06:34:00;3.30;99.90
1534;DHT22;760;48.822;9.304;2024-03-08T06:36:35;3.40;99.90
1534;DHT22;760;48.822;9.304;2024-03-08T06:39:03;3.40;99.90
1534;DHT22;760;48.822;9.304;2024-03-08T06:41:35;3.50;99.90
1534;DHT22;760;48.822;9.304;2024-03-08T06:44:01;3.60;99.90
1534;DHT22;760;48.822;9.304;2024-03-08T06:46:26;3.60;99.90
1534;DHT22;760;48.822;9.304;2024-03-08T06:48:52;3.70;99.90
1534;DHT22;760;48.822;9.304;2024-03-08T06:51:18;3.70;99.90
1534;DHT22;760;48.822;9.304;2024-03-08T06:53:44;3.70;99.90
1534;DHT22;760;48.822;9.304;2024-03-08T06:56:10;3.80;99.90
1534;DHT22;760;48.822;9.304;2024-03-08T06:58:38;3.80;99.90
1534;DHT22;760;48.822;9.304;2024-03-08T07:01:04;3.90;99.90
1534;DHT22;760;48.822;9.304;2024-03-08T07:03:33;3.90;99.90
1534;DHT22;760;48.822;9.304;2024-03-08T07:05:58;4.00;99.90
1534;DHT22;760;48.822;9.304;2024-03-08T07:08:24;4.10;99.90
1534;DHT22;760;48.822;9.304;2024-03-08T07:10:52;4.10;99.90
1534;DHT22;760;48.822;9.304;2024-03-08T07:13:18;4.10;99.90
1534;DHT22;760;48.822;9.304;2024-03-08T07:15:44;4.20;99.90
1534;DHT22;760;48.822;9.304;2024-03-08T07:18:11;4.30;99.90
1534;DHT22;760;48.822;9.304;2024-03-08T07:20:40;4.30;99.90
1534;DHT22;760;48.822;9.304;2024-03-08T07:23:05;4.30;99.90
1534;DHT22;760;48.822;9.304;2024-03-08T07:25:31;4.40;99.90
1534;DHT22;760;48.822;9.304;2024-03-08T07:27:57;4.40;99.90
1534;DHT22;760;48.822;9.304;2024-03-08T07:30:24;4.40;99.90
1534;DHT22;760;48.822;9.304;2024-03-08T07:33:08;4.50;99.90
1534;DHT22;760;48.822;9.304;2024-03-08T07:35:37;4.50;99.90
1534;DHT22;760;48.822;9.304;2024-03-08T07:38:12;4.50;99.90
1534;DHT22;760;48.822;9.304;2024-03-08T07:40:39;4.50;99.90
1534;DHT22;760;48.822;9.304;2024-03-08T07:43:09;4.50;99.90
1534;DHT22;760;48.822;9.304;2024-03-08T07:45:36;4.50;99.90
1534;DHT22;760;48.822;9.304;2024-03-08T07:48:01;4.50;99.90
1534;DHT22;760;48.822;9.304;2024-03-08T07:50:28;4.50;99.90
1534;DHT22;760;48.822;9.304;2024-03-08T07:52:54;4.60;99.90
1534;DHT22;760;48.822;9.304;2024-03-08T07:55:20;4.60;99.90
1534;DHT22;760;48.822;9.304;2024-03-08T07:57:45;4.70;99.90
1534;DHT22;760;48.822;9.304;2024-03-08T08:00:13;4.70;99.90
1534;DHT22;760;48.822;9.304;2024-03-08T08:02:46;4.80;99.90
1534;DHT22;760;48.822;9.304;2024-03-08T08:05:11;4.80;99.90
1534;DHT22;760;48.822;9.304;2024-03-08T08:07:37;4.80;99.90
1534;DHT22;760;48.822;9.304;2024-03-08T08:10:03;4.80;99.90
1534;DHT22;760;48.822;9.304;2024-03-08T08:12:31;4.80;99.90
1534;DHT22;760;48.822;9.304;2024-03-08T08:14:59;4.80;99.90
1534;DHT22;760;48.822;9.304;2024-03-08T08:17:25;4.80;99.90
1534;DHT22;760;48.822;9.304;2024-03-08T08:19:51;4.80;99.90
1534;DHT22;760;48.822;9.304;2024-03-08T08:22:16;4.80;99.90
1534;DHT22;760;48.822;9.304;2024-03-08T08:24:43;4.80;99.90
1534;DHT22;760;48.822;9.304;2024-03-08T08:27:09;4.80;99.90
1534;DHT22;760;48.822;9.304;2024-03-08T08:29:34;4.70;99.90
1534;DHT22;760;48.822;9.304;2024-03-08T08:32:00;4.70;99.90
1534;DHT22;760;48.822;9.304;2024-03-08T08:34:26;4.70;99.90
1534;DHT22;760;48.822;9.304;2024-03-08T08:36:52;4.60;99.90
1534;DHT22;760;48.822;9.304;2024-03-08T08:39:18;4.60;99.90
1534;DHT22;760;48.822;9.304;2024-03-08T08:41:44;4.70;99.90
1534;DHT22;760;48.822;9.304;2024-03-08T08:44:10;4.70;99.90
1534;DHT22;760;48.822;9.304;2024-03-08T08:46:37;4.70;99.90
1534;DHT22;760;48.822;9.304;2024-03-08T08:49:04;4.80;99.90
1534;DHT22;760;48.822;9.304;2024-03-08T08:51:30;4.80;99.90
1534;DHT22;760;48.822;9.304;2024-03-08T08:53:56;4.80;99.90
1534;DHT22;760;48.822;9.304;2024-03-08T08:56:22;4.80;99.90
1534;DHT22;760;48.822;9.304;2024-03-08T08:58:47;4.80;99.90
1534;DHT22;760;48.822;9.304;2024-03-08T09:01:14;4.80;99.90
1534;DHT22;760;48.822;9.304;2024-03-08T09:03:40;4.90;99.90
1534;DHT22;760;48.822;9.304;2024-03-08T09:06:08;5.00;99.90
1534;DHT22;760;48.822;9.304;2024-03-08T09:08:35;5.00;99.90
1534;DHT22;760;48.822;9.304;2024-03-08T09:11:01;5.10;99.90
1534;DHT22;760;48.822;9.304;2024-03-08T09:13:27;5.10;99.90
1534;DHT22;760;48.822;9.304;2024-03-08T09:15:53;5.20;99.90
1534;DHT22;760;48.822;9.304;2024-03-08T09:18:18;5.30;99.90
1534;DHT22;760;48.822;9.304;2024-03-08T09:20:47;5.40;99.90
1534;DHT22;760;48.822;9.304;2024-03-08T09:23:12;5.50;99.90
1534;DHT22;760;48.822;9.304;2024-03-08T09:25:38;5.50;99.90
1534;DHT22;760;48.822;9.304;2024-03-08T09:28:04;5.50;99.90
1534;DHT22;760;48.822;9.304;2024-03-08T09:30:31;5.60;99.90
1534;DHT22;760;48.822;9.304;2024-03-08T09:32:57;5.60;99.90
1534;DHT22;760;48.822;9.304;2024-03-08T09:35:22;5.60;99.90
1534;DHT22;760;48.822;9.304;2024-03-08T09:37:48;5.60;99.90
1534;DHT22;760;48.822;9.304;2024-03-08T09:40:17;5.60;99.90
1534;DHT22;760;48.822;9.304;2024-03-08T09:42:48;5.60;99.90
1534;DHT22;760;48.822;9.304;2024-03-08T09:45:13;5.60;99.90
1534;DHT22;760;48.822;9.304;2024-03-08T09:47:44;5.80;99.90
1534;DHT22;760;48.822;9.304;2024-03-08T09:50:11;5.90;99.90
1534;DHT22;760;48.822;9.304;2024-03-08T09:52:41;6.00;99.90
1534;DHT22;760;48.822;9.304;2024-03-08T09:55:10;6.10;99.90
1534;DHT22;760;48.822;9.304;2024-03-08T09:57:39;6.10;99.90
1534;DHT22;760;48.822;9.304;2024-03-08T10:00:05;6.20;99.90
1534;DHT22;760;48.822;9.304;2024-03-08T10:02:46;6.20;99.90
1534;DHT22;760;48.822;9.304;2024-03-08T10:05:13;6.20;99.90
1534;DHT22;760;48.822;9.304;2024-03-08T10:07:39;6.20;99.90
1534;DHT22;760;48.822;9.304;2024-03-08T10:10:05;6.20;99.90
1534;DHT22;760;48.822;9.304;2024-03-08T10:12:36;6.20;99.90
1534;DHT22;760;48.822;9.304;2024-03-08T10:15:02;6.30;99.90
1534;DHT22;760;48.822;9.304;2024-03-08T10:17:28;6.30;99.90
1534;DHT22;760;48.822;9.304;2024-03-08T10:19:57;6.30;99.90
1534;DHT22;760;48.822;9.304;2024-03-08T10:22:25;6.40;99.90
1534;DHT22;760;48.822;9.304;2024-03-08T10:24:51;6.50;99.90
1534;DHT22;760;48.822;9.304;2024-03-08T10:27:17;6.60;99.90
1534;DHT22;760;48.822;9.304;2024-03-08T10:29:45;6.70;99.90
1534;DHT22;760;48.822;9.304;2024-03-08T10:32:11;6.80;99.90
1534;DHT22;760;48.822;9.304;2024-03-08T10:34:40;6.90;99.90
1534;DHT22;760;48.822;9.304;2024-03-08T10:37:07;6.80;99.90
1534;DHT22;760;48.822;9.304;2024-03-08T10:39:37;6.80;99.90
1534;DHT22;760;48.822;9.304;2024-03-08T10:42:04;6.90;99.90
1534;DHT22;760;48.822;9.304;2024-03-08T10:49:54;7.20;99.90
1534;DHT22;760;48.822;9.304;2024-03-08T10:52:21;7.20;99.90
1534;DHT22;760;48.822;9.304;2024-03-08T10:54:48;7.50;99.90
1534;DHT22;760;48.822;9.304;2024-03-08T10:57:17;7.70;99.90
1534;DHT22;760;48.822;9.304;2024-03-08T10:59:43;7.80;99.90
1534;DHT22;760;48.822;9.304;2024-03-08T11:02:11;7.90;99.90
1534;DHT22;760;48.822;9.304;2024-03-08T11:04:37;8.00;99.90
1534;DHT22;760;48.822;9.304;2024-03-08T11:07:04;8.00;99.90
1534;DHT22;760;48.822;9.304;2024-03-08T11:09:40;7.80;99.90
1534;DHT22;760;48.822;9.304;2024-03-08T11:15:03;7.70;99.90
1534;DHT22;760;48.822;9.304;2024-03-08T11:20:15;8.00;99.90
1534;DHT22;760;48.822;9.304;2024-03-08T11:22:53;8.40;99.90
1534;DHT22;760;48.822;9.304;2024-03-08T11:25:38;8.60;99.90
1534;DHT22;760;48.822;9.304;2024-03-08T11:31:26;8.60;99.90
1534;DHT22;760;48.822;9.304;2024-03-08T11:33:52;8.60;99.90
1534;DHT22;760;48.822;9.304;2024-03-08T11:36:25;8.50;99.90
1534;DHT22;760;48.822;9.304;2024-03-08T11:38:52;8.40;99.90
1534;DHT22;760;48.822;9.304;2024-03-08T11:41:20;8.40;99.90
1534;DHT22;760;48.822;9.304;2024-03-08T11:43:47;8.30;99.90
1534;DHT22;760;48.822;9.304;2024-03-08T11:46:14;8.20;99.90
1534;DHT22;760;48.822;9.304;2024-03-08T11:48:41;8.20;99.90
1534;DHT22;760;48.822;9.304;2024-03-08T11:51:13;8.10;99.90
1534;DHT22;760;48.822;9.304;2024-03-08T11:53:40;8.10;99.90
1534;DHT22;760;48.822;9.304;2024-03-08T11:56:07;8.20;99.90
1534;DHT22;760;48.822;9.304;2024-03-08T11:58:33;8.20;99.90
1534;DHT22;760;48.822;9.304;2024-03-08T12:01:06;8.20;99.90
1534;DHT22;760;48.822;9.304;2024-03-08T12:03:32;8.20;99.90
1534;DHT22;760;48.822;9.304;2024-03-08T12:06:01;8.20;99.90
1534;DHT22;760;48.822;9.304;2024-03-08T12:08:30;8.30;99.90
1534;DHT22;760;48.822;9.304;2024-03-08T12:10:56;8.40;99.90
1534;DHT22;760;48.822;9.304;2024-03-08T12:13:30;8.40;99.90
1534;DHT22;760;48.822;9.304;2024-03-08T12:16:02;8.40;99.90
1534;DHT22;760;48.822;9.304;2024-03-08T12:18:36;8.40;99.90
1534;DHT22;760;48.822;9.304;2024-03-08T12:21:09;8.50;99.90
1534;DHT22;760;48.822;9.304;2024-03-08T12:23:36;8.50;99.90
1534;DHT22;760;48.822;9.304;2024-03-08T12:26:13;8.50;99.90
1534;DHT22;760;48.822;9.304;2024-03-08T12:28:40;8.60;99.90
1534;DHT22;760;48.822;9.304;2024-03-08T12:31:07;8.70;99.90
1534;DHT22;760;48.822;9.304;2024-03-08T12:33:50;8.80;99.90
1534;DHT22;760;48.822;9.304;2024-03-08T12:36:16;8.80;99.90
1534;DHT22;760;48.822;9.304;2024-03-08T12:38:49;8.80;99.90
1534;DHT22;760;48.822;9.304;2024-03-08T12:41:21;8.90;99.90
1534;DHT22;760;48.822;9.304;2024-03-08T12:43:47;8.90;99.90
1534;DHT22;760;48.822;9.304;2024-03-08T12:46:22;8.90;99.90
1534;DHT22;760;48.822;9.304;2024-03-08T12:48:51;8.90;99.90
1534;DHT22;760;48.822;9.304;2024-03-08T12:51:20;9.00;99.90
1534;DHT22;760;48.822;9.304;2024-03-08T12:53:46;9.00;99.90
1534;DHT22;760;48.822;9.304;2024-03-08T12:56:33;9.10;99.90
1534;DHT22;760;48.822;9.304;2024-03-08T12:59:02;9.20;99.90
1534;DHT22;760;48.822;9.304;2024-03-08T13:01:28;9.30;99.90
1534;DHT22;760;48.822;9.304;2024-03-08T13:03:55;9.30;99.90
1534;DHT22;760;48.822;9.304;2024-03-08T13:06:21;9.40;99.90
1534;DHT22;760;48.822;9.304;2024-03-08T13:08:50;9.30;99.90
1534;DHT22;760;48.822;9.304;2024-03-08T13:11:17;9.30;99.90
1534;DHT22;760;48.822;9.304;2024-03-08T13:13:43;9.30;99.90
1534;DHT22;760;48.822;9.304;2024-03-08T13:16:09;9.40;99.90
1534;DHT22;760;48.822;9.304;2024-03-08T13:18:36;9.50;99.90
1534;DHT22;760;48.822;9.304;2024-03-08T13:21:03;9.50;99.90
1534;DHT22;760;48.822;9.304;2024-03-08T13:23:35;9.50;99.90
1534;DHT22;760;48.822;9.304;2024-03-08T13:26:11;9.50;99.90
1534;DHT22;760;48.822;9.304;2024-03-08T13:28:47;9.40;99.90
1534;DHT22;760;48.822;9.304;2024-03-08T13:31:14;9.40;99.90
1534;DHT22;760;48.822;9.304;2024-03-08T13:33:40;9.40;99.90
1534;DHT22;760;48.822;9.304;2024-03-08T13:36:11;9.50;99.90
1534;DHT22;760;48.822;9.304;2024-03-08T13:38:47;9.50;99.90
1534;DHT22;760;48.822;9.304;2024-03-08T13:41:15;9.50;99.90
1534;DHT22;760;48.822;9.304;2024-03-08T13:43:42;9.60;99.90
1534;DHT22;760;48.822;9.304;2024-03-08T13:46:08;9.70;99.90
1534;DHT22;760;48.822;9.304;2024-03-08T13:48:36;9.80;99.90
1534;DHT22;760;48.822;9.304;2024-03-08T13:51:06;9.90;99.90
1534;DHT22;760;48.822;9.304;2024-03-08T13:53:32;10.00;99.90
1534;DHT22;760;48.822;9.304;2024-03-08T13:55:59;9.90;99.90
1534;DHT22;760;48.822;9.304;2024-03-08T13:58:25;10.00;99.90
1534;DHT22;760;48.822;9.304;2024-03-08T14:00:51;10.00;99.90
1534;DHT22;760;48.822;9.304;2024-03-08T14:03:17;10.10;99.90
1534;DHT22;760;48.822;9.304;2024-03-08T14:05:43;10.10;99.90
1534;DHT22;760;48.822;9.304;2024-03-08T14:08:10;10.10;99.90
1534;DHT22;760;48.822;9.304;2024-03-08T14:10:37;10.20;99.50
1534;DHT22;760;48.822;9.304;2024-03-08T14:13:03;10.30;99.40
1534;DHT22;760;48.822;9.304;2024-03-08T14:15:31;10.20;99.40
1534;DHT22;760;48.822;9.304;2024-03-08T14:17:57;10.20;99.30
1534;DHT22;760;48.822;9.304;2024-03-08T14:20:23;10.20;99.00
1534;DHT22;760;48.822;9.304;2024-03-08T14:22:55;10.20;99.30
1534;DHT22;760;48.822;9.304;2024-03-08T14:25:21;10.20;99.20
1534;DHT22;760;48.822;9.304;2024-03-08T14:27:49;10.30;99.20
1534;DHT22;760;48.822;9.304;2024-03-08T14:30:15;10.30;99.30
1534;DHT22;760;48.822;9.304;2024-03-08T14:32:58;10.20;99.40
1534;DHT22;760;48.822;9.304;2024-03-08T14:35:25;10.30;99.50
1534;DHT22;760;48.822;9.304;2024-03-08T14:37:52;10.30;99.40
1534;DHT22;760;48.822;9.304;2024-03-08T14:40:18;10.30;99.60
1534;DHT22;760;48.822;9.304;2024-03-08T14:42:48;10.40;99.80
1534;DHT22;760;48.822;9.304;2024-03-08T14:45:15;10.50;99.80
1534;DHT22;760;48.822;9.304;2024-03-08T14:47:41;10.50;99.90
1534;DHT22;760;48.822;9.304;2024-03-08T14:50:08;10.50;99.50
1534;DHT22;760;48.822;9.304;2024-03-08T14:52:35;10.60;99.60
1534;DHT22;760;48.822;9.304;2024-03-08T14:55:01;10.60;99.60
1534;DHT22;760;48.822;9.304;2024-03-08T14:57:28;10.70;99.70
1534;DHT22;760;48.822;9.304;2024-03-08T14:59:54;10.70;99.60
1534;DHT22;760;48.822;9.304;2024-03-08T15:02:19;10.70;99.20
1534;DHT22;760;48.822;9.304;2024-03-08T15:04:47;10.80;99.20
1534;DHT22;760;48.822;9.304;2024-03-08T15:07:22;10.70;99.30
1534;DHT22;760;48.822;9.304;2024-03-08T15:09:48;10.80;99.40
1534;DHT22;760;48.822;9.304;2024-03-08T15:12:14;10.90;99.30
1534;DHT22;760;48.822;9.304;2024-03-08T15:14:41;11.00;99.10
1534;DHT22;760;48.822;9.304;2024-03-08T15:17:09;11.00;98.90
1534;DHT22;760;48.822;9.304;2024-03-08T15:19:42;11.00;98.90
1534;DHT22;760;48.822;9.304;2024-03-08T15:22:08;11.00;98.50
1534;DHT22;760;48.822;9.304;2024-03-08T15:24:35;11.10;98.30
1534;DHT22;760;48.822;9.304;2024-03-08T15:27:00;11.10;98.40
1534;DHT22;760;48.822;9.304;2024-03-08T15:29:27;11.10;98.60
1534;DHT22;760;48.822;9.304;2024-03-08T15:31:53;11.10;98.80
1534;DHT22;760;48.822;9.304;2024-03-08T15:34:22;11.10;99.10
1534;DHT22;760;48.822;9.304;2024-03-08T15:36:50;11.10;98.60
1534;DHT22;760;48.822;9.304;2024-03-08T15:39:19;11.10;98.70
1534;DHT22;760;48.822;9.304;2024-03-08T15:41:48;11.10;98.60
1534;DHT22;760;48.822;9.304;2024-03-08T15:44:14;11.10;98.70
1534;DHT22;760;48.822;9.304;2024-03-08T15:46:41;11.10;98.50
1534;DHT22;760;48.822;9.304;2024-03-08T15:49:08;11.10;98.40
1534;DHT22;760;48.822;9.304;2024-03-08T15:51:34;11.10;98.10
1534;DHT22;760;48.822;9.304;2024-03-08T15:54:02;11.10;98.00
1534;DHT22;760;48.822;9.304;2024-03-08T15:56:30;11.10;97.90
1534;DHT22;760;48.822;9.304;2024-03-08T15:58:57;11.10;97.50
1534;DHT22;760;48.822;9.304;2024-03-08T16:01:23;11.10;97.70
1534;DHT22;760;48.822;9.304;2024-03-08T16:03:50;11.10;97.70
1534;DHT22;760;48.822;9.304;2024-03-08T16:06:16;11.10;97.80
1534;DHT22;760;48.822;9.304;2024-03-08T16:08:47;11.00;97.80
1534;DHT22;760;48.822;9.304;2024-03-08T16:11:13;11.00;97.70
1534;DHT22;760;48.822;9.304;2024-03-08T16:13:38;11.00;97.60
1534;DHT22;760;48.822;9.304;2024-03-08T16:16:05;10.90;97.90
1534;DHT22;760;48.822;9.304;2024-03-08T16:18:31;10.90;98.10
1534;DHT22;760;48.822;9.304;2024-03-08T16:21:00;10.90;98.20
1534;DHT22;760;48.822;9.304;2024-03-08T16:23:28;10.90;98.30
1534;DHT22;760;48.822;9.304;2024-03-08T16:25:54;10.90;98.10
1534;DHT22;760;48.822;9.304;2024-03-08T16:28:19;10.90;98.20
1534;DHT22;760;48.822;9.304;2024-03-08T16:30:51;10.80;98.20
1534;DHT22;760;48.822;9.304;2024-03-08T16:33:20;10.70;98.10
1534;DHT22;760;48.822;9.304;2024-03-08T16:35:46;10.70;97.90
1534;DHT22;760;48.822;9.304;2024-03-08T16:38:12;10.70;98.00
1534;DHT22;760;48.822;9.304;2024-03-08T16:40:56;10.60;98.10
1534;DHT22;760;48.822;9.304;2024-03-08T16:43:25;10.60;98.30
1534;DHT22;760;48.822;9.304;2024-03-08T16:45:51;10.50;98.30
1534;DHT22;760;48.822;9.304;2024-03-08T16:48:19;10.50;98.50
1534;DHT22;760;48.822;9.304;2024-03-08T16:50:47;10.40;98.50
1534;DHT22;760;48.822;9.304;2024-03-08T16:53:14;10.40;98.60
1534;DHT22;760;48.822;9.304;2024-03-08T16:55:40;10.30;98.60
1534;DHT22;760;48.822;9.304;2024-03-08T16:58:06;10.30;98.60
1534;DHT22;760;48.822;9.304;2024-03-08T17:00:33;10.20;98.80
1534;DHT22;760;48.822;9.304;2024-03-08T17:03:00;10.10;98.90
1534;DHT22;760;48.822;9.304;2024-03-08T17:05:31;10.00;99.00
1534;DHT22;760;48.822;9.304;2024-03-08T17:08:01;9.90;99.70
1534;DHT22;760;48.822;9.304;2024-03-08T17:10:31;9.90;99.80
1534;DHT22;760;48.822;9.304;2024-03-08T17:12:59;9.80;99.90
1534;DHT22;760;48.822;9.304;2024-03-08T17:15:27;9.70;99.90
1534;DHT22;760;48.822;9.304;2024-03-08T17:17:57;9.70;99.90
1534;DHT22;760;48.822;9.304;2024-03-08T17:20:30;9.60;99.90
1534;DHT22;760;48.822;9.304;2024-03-08T17:22:57;9.60;99.90
1534;DHT22;760;48.822;9.304;2024-03-08T17:25:24;9.50;99.90
1534;DHT22;760;48.822;9.304;2024-03-08T17:27:54;9.40;99.90
1534;DHT22;760;48.822;9.304;2024-03-08T17:30:24;9.30;99.90
1534;DHT22;760;48.822;9.304;2024-03-08T17:33:01;9.20;99.90
1534;DHT22;760;48.822;9.304;2024-03-08T17:35:34;9.20;99.90
1534;DHT22;760;48.822;9.304;2024-03-08T17:38:00;9.10;99.90
1534;DHT22;760;48.822;9.304;2024-03-08T17:40:30;9.10;99.90
1534;DHT22;760;48.822;9.304;2024-03-08T17:42:57;9.00;99.90
1534;DHT22;760;48.822;9.304;2024-03-08T17:45:26;8.90;99.90
1534;DHT22;760;48.822;9.304;2024-03-08T17:47:53;8.90;99.90
1534;DHT22;760;48.822;9.304;2024-03-08T17:50:21;8.90;99.90
1534;DHT22;760;48.822;9.304;2024-03-08T17:52:49;8.80;99.90
1534;DHT22;760;48.822;9.304;2024-03-08T17:55:24;8.80;99.90
1534;DHT22;760;48.822;9.304;2024-03-08T17:57:51;8.70;99.90
1534;DHT22;760;48.822;9.304;2024-03-08T18:00:21;8.70;99.90
1534;DHT22;760;48.822;9.304;2024-03-08T18:03:08;8.60;99.90
1534;DHT22;760;48.822;9.304;2024-03-08T18:05:40;8.50;99.90
1534;DHT22;760;48.822;9.304;2024-03-08T18:08:09;8.50;99.90
1534;DHT22;760;48.822;9.304;2024-03-08T18:10:35;8.40;99.90
1534;DHT22;760;48.822;9.304;2024-03-08T18:13:02;8.40;99.90
1534;DHT22;760;48.822;9.304;2024-03-08T18:15:29;8.40;99.90
1534;DHT22;760;48.822;9.304;2024-03-08T18:18:00;8.30;99.90
1534;DHT22;760;48.822;9.304;2024-03-08T18:20:32;8.30;99.90
1534;DHT22;760;48.822;9.304;2024-03-08T18:23:02;8.40;99.90
1534;DHT22;760;48.822;9.304;2024-03-08T18:25:29;8.40;99.90
1534;DHT22;760;48.822;9.304;2024-03-08T18:27:55;8.40;99.90
1534;DHT22;760;48.822;9.304;2024-03-08T18:30:23;8.40;99.90
1534;DHT22;760;48.822;9.304;2024-03-08T18:32:50;8.40;99.90
1534;DHT22;760;48.822;9.304;2024-03-08T18:35:19;8.40;99.90
1534;DHT22;760;48.822;9.304;2024-03-08T18:37:45;8.40;99.90
1534;DHT22;760;48.822;9.304;2024-03-08T18:40:13;8.30;99.90
1534;DHT22;760;48.822;9.304;2024-03-08T18:42:39;8.20;99.90
1534;DHT22;760;48.822;9.304;2024-03-08T18:45:07;8.20;99.90
1534;DHT22;760;48.822;9.304;2024-03-08T18:47:40;8.20;99.90
1534;DHT22;760;48.822;9.304;2024-03-08T18:50:08;8.10;99.90
1534;DHT22;760;48.822;9.304;2024-03-08T18:52:38;8.10;99.90
1534;DHT22;760;48.822;9.304;2024-03-08T18:55:04;8.00;99.90
1534;DHT22;760;48.822;9.304;2024-03-08T18:57:52;7.90;99.90
1534;DHT22;760;48.822;9.304;2024-03-08T19:00:21;7.90;99.90
1534;DHT22;760;48.822;9.304;2024-03-08T19:02:51;7.80;99.90
1534;DHT22;760;48.822;9.304;2024-03-08T19:05:39;7.70;99.90
1534;DHT22;760;48.822;9.304;2024-03-08T19:08:11;7.60;99.90
1534;DHT22;760;48.822;9.304;2024-03-08T19:10:42;7.50;99.90
1534;DHT22;760;48.822;9.304;2024-03-08T19:13:08;7.50;99.90
1534;DHT22;760;48.822;9.304;2024-03-08T19:15:36;7.40;99.90
1534;DHT22;760;48.822;9.304;2024-03-08T19:18:03;7.40;99.90
1534;DHT22;760;48.822;9.304;2024-03-08T19:20:36;7.30;99.90
1534;DHT22;760;48.822;9.304;2024-03-08T19:23:04;7.30;99.90
1534;DHT22;760;48.822;9.304;2024-03-08T19:25:32;7.30;99.90
1534;DHT22;760;48.822;9.304;2024-03-08T19:27:59;7.30;99.90
1534;DHT22;760;48.822;9.304;2024-03-08T19:30:28;7.20;99.90
1534;DHT22;760;48.822;9.304;2024-03-08T19:32:54;7.20;99.90
1534;DHT22;760;48.822;9.304;2024-03-08T19:35:24;7.20;99.90
1534;DHT22;760;48.822;9.304;2024-03-08T19:37:54;7.20;99.90
1534;DHT22;760;48.822;9.304;2024-03-08T19:40:26;7.10;99.90
1534;DHT22;760;48.822;9.304;2024-03-08T19:42:58;7.10;99.90
1534;DHT22;760;48.822;9.304;2024-03-08T19:45:27;7.10;99.90
1534;DHT22;760;48.822;9.304;2024-03-08T19:47:57;7.10;99.90
1534;DHT22;760;48.822;9.304;2024-03-08T19:50:30;7.00;99.90
1534;DHT22;760;48.822;9.304;2024-03-08T19:52:57;7.00;99.90
1534;DHT22;760;48.822;9.304;2024-03-08T19:55:29;7.00;99.90
1534;DHT22;760;48.822;9.304;2024-03-08T19:57:58;7.00;99.90
1534;DHT22;760;48.822;9.304;2024-03-08T20:00:25;7.00;99.90
1534;DHT22;760;48.822;9.304;2024-03-08T20:02:54;6.90;99.90
1534;DHT22;760;48.822;9.304;2024-03-08T20:05:22;6.90;99.90
1534;DHT22;760;48.822;9.304;2024-03-08T20:07:50;6.80;99.90
1534;DHT22;760;48.822;9.304;2024-03-08T20:10:23;6.80;99.90
1534;DHT22;760;48.822;9.304;2024-03-08T20:12:50;6.80;99.90
1534;DHT22;760;48.822;9.304;2024-03-08T20:15:18;6.70;99.90
1534;DHT22;760;48.822;9.304;2024-03-08T20:17:45;6.70;99.90
1534;DHT22;760;48.822;9.304;2024-03-08T20:20:12;6.60;99.90
1534;DHT22;760;48.822;9.304;2024-03-08T20:22:42;6.50;99.90
1534;DHT22;760;48.822;9.304;2024-03-08T20:25:12;6.40;99.90
1534;DHT22;760;48.822;9.304;2024-03-08T20:27:44;6.40;99.90
1534;DHT22;760;48.822;9.304;2024-03-08T20:30:15;6.30;99.90
1534;DHT22;760;48.822;9.304;2024-03-08T20:32:51;6.20;99.90
1534;DHT22;760;48.822;9.304;2024-03-08T20:35:28;6.20;99.90
1534;DHT22;760;48.822;9.304;2024-03-08T20:37:55;6.10;99.90
1534;DHT22;760;48.822;9.304;2024-03-08T20:40:26;6.10;99.90
1534;DHT22;760;48.822;9.304;2024-03-08T20:42:58;6.00;99.90
1534;DHT22;760;48.822;9.304;2024-03-08T20:45:24;6.00;99.90
1534;DHT22;760;48.822;9.304;2024-03-08T20:47:53;5.90;99.90
1534;DHT22;760;48.822;9.304;2024-03-08T20:50:19;5.90;99.90
1534;DHT22;760;48.822;9.304;2024-03-08T20:52:49;5.80;99.90
1534;DHT22;760;48.822;9.304;2024-03-08T20:55:15;5.80;99.90
1534;DHT22;760;48.822;9.304;2024-03-08T20:57:47;5.70;99.90
1534;DHT22;760;48.822;9.304;2024-03-08T21:00:20;5.60;99.90
1534;DHT22;760;48.822;9.304;2024-03-08T21:03:11;5.60;99.90
1534;DHT22;760;48.822;9.304;2024-03-08T21:05:44;5.50;99.90
1534;DHT22;760;48.822;9.304;2024-03-08T21:08:13;5.40;99.90
1534;DHT22;760;48.822;9.304;2024-03-08T21:10:42;5.30;99.90
1534;DHT22;760;48.822;9.304;2024-03-08T21:13:09;5.20;99.90
1534;DHT22;760;48.822;9.304;2024-03-08T21:15:41;5.20;99.90
1534;DHT22;760;48.822;9.304;2024-03-08T21:18:07;5.10;99.90
1534;DHT22;760;48.822;9.304;2024-03-08T21:20:34;5.10;99.90
1534;DHT22;760;48.822;9.304;2024-03-08T21:22:59;5.00;99.90
1534;DHT22;760;48.822;9.304;2024-03-08T21:25:25;5.00;99.90
1534;DHT22;760;48.822;9.304;2024-03-08T21:27:57;5.00;99.90
1534;DHT22;760;48.822;9.304;2024-03-08T21:30:24;5.10;99.90
1534;DHT22;760;48.822;9.304;2024-03-08T21:32:51;5.20;99.90
1534;DHT22;760;48.822;9.304;2024-03-08T21:35:17;5.30;99.90
1534;DHT22;760;48.822;9.304;2024-03-08T21:37:49;5.30;99.90
1534;DHT22;760;48.822;9.304;2024-03-08T21:40:16;5.40;99.90
1534;DHT22;760;48.822;9.304;2024-03-08T21:42:49;5.50;99.90
1534;DHT22;760;48.822;9.304;2024-03-08T21:45:15;5.50;99.90
1534;DHT22;760;48.822;9.304;2024-03-08T21:47:43;5.60;99.90
1534;DHT22;760;48.822;9.304;2024-03-08T21:50:10;5.60;99.90
1534;DHT22;760;48.822;9.304;2024-03-08T21:52:43;5.70;99.90
1534;DHT22;760;48.822;9.304;2024-03-08T21:55:09;5.70;99.90
1534;DHT22;760;48.822;9.304;2024-03-08T21:57:36;5.70;99.90